Alpharetta, GA (30023)

8:02 AM EDT on July 26, 2016 (GMT -0400)
Alpharetta DPS | | Change Station

Elev 1122 ft 34.07 °N, 84.28 °W | Updated 11 seconds ago

Clear
Clear
74.8 °F
Feels Like 73 °F
N
1.1
Wind Variable Wind from SW
Gusts 2.0 mph

Today
High -- | Low -- °F
--% Chance of Precip.
Yesterday
High -- | Low -- °F
Precip. -- in
Pressure 30.03 in
Visibility 10.0 miles
Clouds Clear
Heat Index 73 °F
Dew Point 72 °F
Humidity 92%
Rainfall 0.00 in
Snow Depth Not available.
6:44 AM 8:42 PM
Waning Gibbous, 55% visible
METAR KPDK 261153Z 00000KT 10SM CLR 25/22 A3009 RMK AO2 SLP167 70002 T02500222 10250 20228 53016
Pressure 30.03 in
Visibility 10.0 miles
Clouds Clear
Heat Index 73 °F
Dew Point 72 °F
Humidity 92%
Rainfall 0.00 in
Snow Depth Not available.
6:44 AM 8:42 PM
Waning Gibbous, 55% visible
METAR KPDK 261153Z 00000KT 10SM CLR 25/22 A3009 RMK AO2 SLP167 70002 T02500222 10250 20228 53016

10-Day Weather Forecast

Almanac

Astronomy

Jul. 26, 2016 Rise Set
Actual Time
Civil Twilight
Nautical Twilight
Astronomical Twilight
Moon
Length of Visible Light
Length of Day
Tomorrow will be .
, % of the Moon is Illuminated

Today's Extremes

State Highs State Lows

Community

WunderPhotos

Upload Photos

1,927,580 photos uploaded!

WunderBlog® & News

Nearby

Air Quality

  Air Quality AQ Index Pollutant
Not available.

Snow Depth

Station Depth Elevation

Earthquake Activity

City Distance Mag. Time & Date
Minimum magnitude displayed is 2.5.

Coastal Water Temperatures

Place Temperature

Stations

Nearby Weather Stations

Station Location Temp. Windchill Dew Point Humidity Wind Precip. Elev Updated Type
                   

Watches & Warnings

There are currently no watches in effect.